Time;durP1;ratioP1;P1;durP2;ratioP2;P2;SDS_P1;SDS_P2;PMS_P1;PMS_P2;Temp;Humidity;BMP_temperature;BMP_pressure;BME280_temperature;BME280_humidity;BME280_pressure;Samples;Min_cycle;Max_cycle;Signal;HPM_P1;HPM_P2
2023/06/13 00:03:57;;;;;;;3.78;2.63;;;;;;;;;;10491433;28;20028;-66
2023/06/13 00:08:57;;;;;;;2.97;2.50;;;;;;;;;;10492153;28;20024;-67
2023/06/13 00:13:58;;;;;;;6.43;2.55;;;;;;;;;;10501109;28;20476;-67
2023/06/13 00:19:00;;;;;;;4.07;2.60;;;;;;;;;;10496861;28;20504;-66
2023/06/13 00:24:00;;;;;;;2.70;2.40;;;;;;;;;;10496662;28;20385;-67
2023/06/13 00:29:01;;;;;;;2.60;2.08;;;;;;;;;;10496690;28;20024;-65
2023/06/13 00:34:02;;;;;;;3.40;2.17;;;;;;;;;;10496309;28;20090;-65
2023/06/13 00:39:03;;;;;;;2.50;2.30;;;;;;;;;;10495456;28;20028;-65
2023/06/13 00:44:04;;;;;;;4.72;2.28;;;;;;;;;;10494485;28;20354;-66
2023/06/13 00:49:06;;;;;;;2.90;2.00;;;;;;;;;;10494786;28;20419;-66
2023/06/13 00:54:07;;;;;;;2.05;1.85;;;;;;;;;;10495750;28;20444;-65
2023/06/13 00:59:09;;;;;;;1.98;1.80;;;;;;;;;;10495638;28;20848;-65
2023/06/13 01:04:13;;;;;;;2.53;2.03;;;;;;;;;;10494596;28;20089;-65
2023/06/13 01:09:16;;;;;;;2.05;1.90;;;;;;;;;;10497879;28;20028;-65
2023/06/13 01:14:49;;;;;;;2.85;1.77;;;;;;;;;;10497208;28;20443;-65
2023/06/13 01:19:58;;;;;;;2.13;1.92;;;;;;;;;;10486076;28;20037;-65
2023/06/13 01:25:20;;;;;;;4.20;2.10;;;;;;;;;;10499220;28;20082;-65
2023/06/13 01:30:21;;;;;;;2.70;1.98;;;;;;;;;;10502961;28;20050;-65
2023/06/13 01:35:23;;;;;;;2.10;1.90;;;;;;;;;;10484191;28;20118;-65
2023/06/13 01:40:24;;;;;;;2.90;2.00;;;;;;;;;;10484898;28;20028;-66
2023/06/13 01:45:24;;;;;;;2.67;2.20;;;;;;;;;;10493597;28;20059;-66
2023/06/13 01:50:40;;;;;;;1.90;1.80;;;;;;;;;;10492550;28;20036;-66
2023/06/13 01:55:58;;;;;;;4.18;2.00;;;;;;;;;;10480690;28;20046;-66
2023/06/13 02:01:04;;;;;;;2.33;2.13;;;;;;;;;;10492075;28;20032;-66
2023/06/13 02:06:05;;;;;;;2.20;2.00;;;;;;;;;;10493110;28;20048;-66
2023/06/13 02:11:06;;;;;;;5.80;2.60;;;;;;;;;;10481541;28;20028;-66
2023/06/13 02:16:06;;;;;;;6.68;2.40;;;;;;;;;;10481168;28;20121;-66
2023/06/13 02:21:07;;;;;;;7.18;2.35;;;;;;;;;;10491838;28;20051;-64
2023/06/13 02:26:08;;;;;;;3.65;2.60;;;;;;;;;;10479514;28;20036;-64
2023/06/13 02:31:08;;;;;;;2.85;2.45;;;;;;;;;;10491919;28;20028;-65
2023/06/13 02:36:09;;;;;;;2.95;2.55;;;;;;;;;;10492097;28;20106;-65
2023/06/13 02:41:11;;;;;;;6.43;2.50;;;;;;;;;;10490600;28;20029;-65
2023/06/13 02:46:12;;;;;;;7.40;3.08;;;;;;;;;;10491890;28;20056;-64
2023/06/13 02:51:12;;;;;;;5.18;2.78;;;;;;;;;;10482161;28;20474;-65
2023/06/13 02:56:13;;;;;;;3.90;3.00;;;;;;;;;;10487569;28;20175;-64
2023/06/13 03:01:14;;;;;;;3.60;2.80;;;;;;;;;;10490526;28;20039;-65
2023/06/13 03:06:17;;;;;;;7.45;2.75;;;;;;;;;;10490084;28;20415;-66
2023/06/13 03:11:18;;;;;;;3.20;2.88;;;;;;;;;;10491016;28;20400;-66
2023/06/13 03:16:21;;;;;;;3.20;2.67;;;;;;;;;;10490863;28;20472;-66
2023/06/13 03:21:22;;;;;;;3.95;2.78;;;;;;;;;;10489933;28;20033;-66
2023/06/13 03:26:23;;;;;;;7.18;3.20;;;;;;;;;;10490506;28;20029;-66
2023/06/13 03:31:24;;;;;;;6.68;2.63;;;;;;;;;;10500565;28;20028;-66
2023/06/13 03:36:24;;;;;;;7.22;3.03;;;;;;;;;;10490291;28;20126;-65
2023/06/13 03:41:25;;;;;;;3.63;2.70;;;;;;;;;;10479780;28;20025;-66
2023/06/13 03:46:26;;;;;;;3.45;3.13;;;;;;;;;;10494792;28;20035;-66
2023/06/13 03:51:26;;;;;;;5.10;2.55;;;;;;;;;;10498904;28;20033;-65
2023/06/13 03:56:27;;;;;;;4.30;2.55;;;;;;;;;;10498838;28;20032;-65
2023/06/13 04:01:28;;;;;;;3.10;2.80;;;;;;;;;;10487057;28;20024;-65
2023/06/13 04:06:28;;;;;;;3.58;2.58;;;;;;;;;;10497407;28;20105;-66
2023/06/13 04:11:29;;;;;;;4.15;2.97;;;;;;;;;;10497501;28;20082;-65
2023/06/13 04:16:30;;;;;;;4.53;2.90;;;;;;;;;;10471451;28;20020;-66
2023/06/13 04:21:30;;;;;;;3.75;2.70;;;;;;;;;;10496209;28;20308;-65
2023/06/13 04:26:31;;;;;;;5.55;3.03;;;;;;;;;;10497197;28;20028;-65
2023/06/13 04:31:35;;;;;;;5.97;2.92;;;;;;;;;;10500645;28;20048;-65
2023/06/13 04:36:38;;;;;;;2.90;2.58;;;;;;;;;;10497547;28;20350;-65
2023/06/13 04:41:43;;;;;;;3.22;2.83;;;;;;;;;;10495666;28;20491;-65
2023/06/13 04:46:43;;;;;;;5.10;2.78;;;;;;;;;;10494544;28;20052;-66
2023/06/13 04:51:45;;;;;;;2.75;2.55;;;;;;;;;;10486980;28;20017;-66
2023/06/13 04:56:45;;;;;;;5.20;2.72;;;;;;;;;;10493241;28;20025;-65
2023/06/13 05:01:47;;;;;;;6.85;2.78;;;;;;;;;;10494079;28;20510;-65
2023/06/13 05:06:48;;;;;;;2.80;2.60;;;;;;;;;;10493615;28;20455;-64
2023/06/13 05:11:48;;;;;;;5.00;3.10;;;;;;;;;;10494088;28;20021;-65
2023/06/13 05:16:49;;;;;;;4.25;2.80;;;;;;;;;;10494018;28;20396;-65
2023/06/13 05:21:49;;;;;;;3.80;2.67;;;;;;;;;;10493894;28;20048;-64
2023/06/13 05:26:51;;;;;;;7.32;3.38;;;;;;;;;;10495195;28;20031;-66
2023/06/13 05:31:52;;;;;;;4.45;2.60;;;;;;;;;;10493954;28;20132;-66
2023/06/13 05:36:54;;;;;;;4.18;2.70;;;;;;;;;;10479541;28;20059;-64
2023/06/13 05:41:54;;;;;;;2.83;2.30;;;;;;;;;;10488093;28;20040;-65
2023/06/13 05:46:55;;;;;;;14.75;2.83;;;;;;;;;;10479029;28;20033;-63
2023/06/13 05:51:55;;;;;;;12.23;2.95;;;;;;;;;;10484381;28;20071;-62
2023/06/13 05:56:56;;;;;;;6.55;2.85;;;;;;;;;;10486662;28;20032;-60
2023/06/13 06:01:57;;;;;;;3.70;2.50;;;;;;;;;;10487657;28;20028;-62
2023/06/13 06:06:57;;;;;;;10.98;3.22;;;;;;;;;;10481444;28;20453;-62
2023/06/13 06:11:58;;;;;;;4.75;2.90;;;;;;;;;;10484731;28;20028;-62
2023/06/13 06:16:58;;;;;;;4.07;2.50;;;;;;;;;;10489980;28;20036;-62
2023/06/13 06:21:59;;;;;;;4.95;3.53;;;;;;;;;;10489528;28;20025;-62
2023/06/13 06:27:00;;;;;;;7.03;2.50;;;;;;;;;;10490947;28;20028;-63
2023/06/13 06:32:00;;;;;;;7.95;3.10;;;;;;;;;;10495554;28;20040;-63
2023/06/13 06:37:05;;;;;;;6.80;2.92;;;;;;;;;;10492148;28;20023;-65
2023/06/13 06:42:06;;;;;;;8.57;2.97;;;;;;;;;;10486888;28;20043;-62
2023/06/13 06:47:06;;;;;;;6.30;3.08;;;;;;;;;;10485747;28;20468;-63
2023/06/13 06:52:07;;;;;;;7.75;3.38;;;;;;;;;;10479002;28;20506;-62
2023/06/13 06:57:08;;;;;;;9.88;2.97;;;;;;;;;;10476629;28;20383;-63
2023/06/13 07:02:08;;;;;;;4.68;2.60;;;;;;;;;;10491256;28;20093;-63
2023/06/13 07:07:10;;;;;;;4.38;2.88;;;;;;;;;;10492162;28;20522;-66
2023/06/13 07:12:10;;;;;;;9.43;2.60;;;;;;;;;;10492149;28;20086;-66
2023/06/13 07:17:11;;;;;;;3.63;2.60;;;;;;;;;;10491404;28;20025;-66
2023/06/13 07:22:12;;;;;;;4.97;3.20;;;;;;;;;;10471556;28;20040;-64
2023/06/13 07:27:12;;;;;;;6.55;2.75;;;;;;;;;;10487258;28;20033;-63
2023/06/13 07:32:13;;;;;;;5.68;2.72;;;;;;;;;;10503336;28;20037;-66
2023/06/13 07:37:13;;;;;;;5.30;2.53;;;;;;;;;;10491707;28;20036;-66
2023/06/13 07:42:14;;;;;;;4.10;2.90;;;;;;;;;;10486845;28;20032;-62
2023/06/13 07:47:15;;;;;;;3.38;2.60;;;;;;;;;;10492153;28;20071;-64
2023/06/13 07:52:15;;;;;;;3.20;2.35;;;;;;;;;;10486779;28;20074;-62
2023/06/13 07:57:16;;;;;;;3.15;2.53;;;;;;;;;;10498968;28;20167;-64
2023/06/13 08:02:17;;;;;;;5.03;2.38;;;;;;;;;;10483182;28;20086;-63
2023/06/13 08:07:18;;;;;;;2.35;2.15;;;;;;;;;;10476125;28;20594;-63
2023/06/13 08:12:19;;;;;;;4.05;2.35;;;;;;;;;;10498866;28;20395;-64
2023/06/13 08:17:19;;;;;;;2.47;2.03;;;;;;;;;;10483825;28;20115;-63
2023/06/13 08:22:20;;;;;;;4.55;2.10;;;;;;;;;;10483904;28;20039;-62
2023/06/13 08:27:21;;;;;;;4.32;2.33;;;;;;;;;;10485489;28;20025;-66
2023/06/13 08:32:21;;;;;;;3.42;2.40;;;;;;;;;;10475984;28;20056;-62
2023/06/13 08:37:22;;;;;;;3.50;2.50;;;;;;;;;;10492807;28;20025;-62
2023/06/13 08:42:23;;;;;;;2.80;2.33;;;;;;;;;;10495169;28;20059;-63
2023/06/13 08:47:23;;;;;;;2.47;2.28;;;;;;;;;;10489122;28;20029;-65
2023/06/13 08:52:29;;;;;;;2.78;2.45;;;;;;;;;;10472266;28;20021;-63
2023/06/13 08:57:31;;;;;;;3.70;2.50;;;;;;;;;;10479491;28;20025;-62
2023/06/13 09:02:32;;;;;;;4.53;2.42;;;;;;;;;;10474880;28;20024;-63
2023/06/13 09:07:34;;;;;;;3.88;2.30;;;;;;;;;;10494947;28;20480;-62
2023/06/13 09:12:35;;;;;;;2.60;2.33;;;;;;;;;;10482377;28;20017;-62
2023/06/13 09:17:36;;;;;;;4.25;2.35;;;;;;;;;;10484015;28;20024;-62
2023/06/13 09:22:37;;;;;;;2.58;2.05;;;;;;;;;;10481628;28;20154;-62
2023/06/13 09:27:37;;;;;;;2.70;2.45;;;;;;;;;;10481009;28;20454;-62
2023/06/13 09:32:47;;;;;;;3.40;2.28;;;;;;;;;;10485861;28;20044;-62
2023/06/13 09:37:48;;;;;;;3.17;2.00;;;;;;;;;;10493181;28;20094;-64
2023/06/13 09:42:49;;;;;;;4.88;2.50;;;;;;;;;;10480828;28;20032;-63
2023/06/13 09:47:50;;;;;;;3.22;2.65;;;;;;;;;;10482446;28;20032;-62
2023/06/13 09:52:51;;;;;;;4.55;2.65;;;;;;;;;;10481306;28;20032;-62
2023/06/13 09:57:52;;;;;;;2.70;2.25;;;;;;;;;;10492758;28;20020;-66
2023/06/13 10:02:53;;;;;;;3.47;2.40;;;;;;;;;;10482534;28;20033;-63
2023/06/13 10:07:54;;;;;;;3.55;2.38;;;;;;;;;;10469051;28;20039;-65
2023/06/13 10:13:06;;;;;;;3.38;2.53;;;;;;;;;;10461739;28;20107;-63
2023/06/13 10:18:13;;;;;;;4.00;2.35;;;;;;;;;;10479471;28;20372;-62
2023/06/13 10:23:18;;;;;;;2.83;2.35;;;;;;;;;;10464453;28;20021;-62
2023/06/13 10:28:27;;;;;;;4.97;2.80;;;;;;;;;;10476148;28;20028;-62
2023/06/13 10:34:14;;;;;;;4.15;2.30;;;;;;;;;;10497151;28;20503;-64
2023/06/13 10:39:59;;;;;;;4.90;2.43;;;;;;;;;;10466327;28;20044;-62
2023/06/13 10:45:07;;;;;;;3.80;2.50;;;;;;;;;;10491482;28;20032;-62
2023/06/13 10:50:08;;;;;;;5.47;2.55;;;;;;;;;;10467573;28;20497;-62
2023/06/13 10:55:21;;;;;;;4.15;2.60;;;;;;;;;;10492351;28;20081;-62
2023/06/13 11:00:26;;;;;;;6.60;2.70;;;;;;;;;;10477585;28;20175;-62
2023/06/13 11:05:27;;;;;;;4.15;2.60;;;;;;;;;;10478302;28;20039;-62
2023/06/13 11:10:29;;;;;;;2.97;2.42;;;;;;;;;;10478598;28;20055;-66
2023/06/13 11:15:30;;;;;;;3.40;2.55;;;;;;;;;;10479309;28;20028;-63
2023/06/13 11:20:31;;;;;;;3.92;2.58;;;;;;;;;;10477848;28;20025;-66
2023/06/13 11:25:32;;;;;;;3.17;2.42;;;;;;;;;;10477812;28;20021;-65
2023/06/13 11:30:33;;;;;;;2.88;2.60;;;;;;;;;;10470911;28;20024;-63
2023/06/13 11:35:35;;;;;;;2.83;2.50;;;;;;;;;;10473479;28;20036;-66
2023/06/13 11:40:40;;;;;;;3.00;2.47;;;;;;;;;;10491132;28;20044;-63
2023/06/13 11:45:41;;;;;;;2.85;2.55;;;;;;;;;;10476688;28;20020;-62
2023/06/13 11:50:42;;;;;;;5.32;2.63;;;;;;;;;;10489887;28;20480;-63
2023/06/13 11:55:42;;;;;;;2.80;2.60;;;;;;;;;;10487505;28;20025;-62
2023/06/13 12:00:57;;;;;;;5.40;2.60;;;;;;;;;;10489730;28;20480;-65
2023/06/13 12:05:58;;;;;;;2.58;2.38;;;;;;;;;;10474293;28;20029;-62
2023/06/13 12:10:59;;;;;;;3.70;2.83;;;;;;;;;;10474285;28;20032;-62
2023/06/13 12:16:01;;;;;;;4.80;3.00;;;;;;;;;;10472204;28;20025;-65
2023/06/13 12:21:01;;;;;;;2.97;2.55;;;;;;;;;;10487403;28;20059;-61
2023/06/13 12:26:03;;;;;;;8.95;3.10;;;;;;;;;;10494170;28;20054;-64
2023/06/13 12:31:07;;;;;;;3.55;3.10;;;;;;;;;;10499149;28;20021;-62
2023/06/13 12:36:09;;;;;;;3.35;3.05;;;;;;;;;;10470323;28;20044;-63
2023/06/13 12:41:14;;;;;;;7.43;3.22;;;;;;;;;;10496642;28;20071;-65
2023/06/13 12:46:15;;;;;;;4.18;3.40;;;;;;;;;;10489853;28;20046;-63
2023/06/13 12:51:29;;;;;;;4.15;3.13;;;;;;;;;;10485462;28;20423;-64
2023/06/13 12:56:29;;;;;;;5.53;3.00;;;;;;;;;;10472161;28;20028;-65
2023/06/13 13:01:30;;;;;;;5.43;2.80;;;;;;;;;;10472221;28;20037;-64
2023/06/13 13:06:31;;;;;;;4.10;3.30;;;;;;;;;;10492526;28;20024;-62
2023/06/13 13:11:31;;;;;;;3.63;3.10;;;;;;;;;;10472878;28;20013;-66
2023/06/13 13:16:32;;;;;;;7.03;2.97;;;;;;;;;;10489083;28;20040;-65
2023/06/13 13:21:33;;;;;;;3.22;2.90;;;;;;;;;;10490643;28;20032;-66
2023/06/13 13:26:33;;;;;;;3.70;3.25;;;;;;;;;;10493803;28;20058;-63
2023/06/13 13:31:34;;;;;;;8.38;3.20;;;;;;;;;;10492695;28;20027;-65
2023/06/13 13:36:35;;;;;;;4.78;3.53;;;;;;;;;;10492502;28;20028;-65
2023/06/13 13:41:37;;;;;;;5.85;3.50;;;;;;;;;;10471013;28;20028;-65
2023/06/13 13:46:37;;;;;;;5.13;3.55;;;;;;;;;;10494833;28;20586;-66
2023/06/13 13:51:38;;;;;;;5.65;3.90;;;;;;;;;;10470650;28;20025;-62
2023/06/13 13:56:38;;;;;;;5.07;3.78;;;;;;;;;;10470293;28;20031;-62
2023/06/13 14:01:39;;;;;;;5.47;3.35;;;;;;;;;;10488589;28;20036;-62
2023/06/13 14:06:41;;;;;;;4.18;3.40;;;;;;;;;;10470116;28;20032;-62
2023/06/13 14:11:43;;;;;;;4.88;3.70;;;;;;;;;;10490977;28;20044;-65
2023/06/13 14:16:44;;;;;;;4.22;3.60;;;;;;;;;;10490991;28;20021;-62
2023/06/13 14:21:45;;;;;;;4.85;3.53;;;;;;;;;;10490671;28;20028;-63
2023/06/13 14:26:46;;;;;;;7.32;3.30;;;;;;;;;;10491306;28;20037;-62
2023/06/13 14:31:47;;;;;;;5.63;3.40;;;;;;;;;;10495383;28;20035;-62
2023/06/13 14:36:53;;;;;;;4.82;3.00;;;;;;;;;;10491641;28;20392;-62
2023/06/13 14:41:53;;;;;;;5.28;3.08;;;;;;;;;;10490271;28;20085;-62
2023/06/13 14:46:54;;;;;;;4.38;3.55;;;;;;;;;;10490774;28;20086;-61
2023/06/13 14:51:55;;;;;;;4.70;3.35;;;;;;;;;;10491530;28;20025;-61
2023/06/13 14:56:55;;;;;;;8.32;3.25;;;;;;;;;;10491868;28;20127;-62
2023/06/13 15:01:56;;;;;;;3.90;2.90;;;;;;;;;;10491537;28;20028;-62
2023/06/13 15:06:57;;;;;;;6.18;3.20;;;;;;;;;;10492361;28;20028;-62
2023/06/13 15:11:59;;;;;;;6.20;3.28;;;;;;;;;;10491723;28;20078;-66
2023/06/13 15:17:00;;;;;;;5.50;3.08;;;;;;;;;;10490523;28;20461;-66
2023/06/13 15:22:01;;;;;;;4.47;2.95;;;;;;;;;;10490868;28;20028;-65
2023/06/13 15:27:01;;;;;;;3.35;2.72;;;;;;;;;;10490660;28;20028;-65
2023/06/13 15:32:03;;;;;;;4.40;3.05;;;;;;;;;;10483938;28;20032;-62
2023/06/13 15:37:06;;;;;;;3.53;2.97;;;;;;;;;;10486476;28;20255;-64
2023/06/13 15:42:06;;;;;;;3.83;3.15;;;;;;;;;;10496257;28;20089;-62
2023/06/13 15:47:07;;;;;;;3.75;3.10;;;;;;;;;;10498090;28;20036;-62
2023/06/13 15:52:08;;;;;;;3.40;2.88;;;;;;;;;;10485622;28;20545;-64
2023/06/13 15:57:08;;;;;;;3.40;2.70;;;;;;;;;;10473377;28;20078;-61
2023/06/13 16:02:09;;;;;;;8.20;3.65;;;;;;;;;;10489009;28;20038;-61
2023/06/13 16:07:09;;;;;;;5.80;3.20;;;;;;;;;;10493581;28;20028;-61
2023/06/13 16:12:10;;;;;;;5.90;3.28;;;;;;;;;;10496145;28;20043;-61
2023/06/13 16:17:11;;;;;;;4.75;2.83;;;;;;;;;;10495323;28;20036;-63
2023/06/13 16:22:11;;;;;;;4.50;2.80;;;;;;;;;;10495824;28;20594;-61
2023/06/13 16:27:12;;;;;;;5.82;2.95;;;;;;;;;;10491341;28;20401;-63
2023/06/13 16:32:12;;;;;;;3.58;3.03;;;;;;;;;;10495363;28;20048;-59
2023/06/13 16:37:13;;;;;;;5.00;2.85;;;;;;;;;;10497226;28;20110;-60
2023/06/13 16:42:13;;;;;;;7.45;3.20;;;;;;;;;;10489397;28;20388;-62
2023/06/13 16:47:14;;;;;;;3.08;2.72;;;;;;;;;;10476862;28;20020;-61
2023/06/13 16:52:16;;;;;;;4.90;2.92;;;;;;;;;;10496354;28;20020;-61
2023/06/13 16:57:17;;;;;;;4.15;2.75;;;;;;;;;;10495241;28;20106;-60
2023/06/13 17:02:18;;;;;;;3.67;2.92;;;;;;;;;;10495122;28;20098;-60
2023/06/13 17:07:18;;;;;;;3.15;2.70;;;;;;;;;;10496853;28;20029;-61
2023/06/13 17:12:19;;;;;;;4.10;2.83;;;;;;;;;;10495393;28;20033;-63
2023/06/13 17:17:19;;;;;;;4.85;3.08;;;;;;;;;;10495280;28;20534;-61
2023/06/13 17:22:20;;;;;;;3.28;2.97;;;;;;;;;;10494439;28;20082;-64
2023/06/13 17:27:21;;;;;;;5.15;3.20;;;;;;;;;;10494508;28;20469;-60
2023/06/13 17:32:22;;;;;;;2.75;2.55;;;;;;;;;;10496332;28;20230;-61
2023/06/13 17:37:23;;;;;;;4.00;2.55;;;;;;;;;;10494115;28;20028;-60
2023/06/13 17:42:23;;;;;;;4.38;2.70;;;;;;;;;;10492181;28;20052;-61
2023/06/13 17:47:24;;;;;;;6.70;2.78;;;;;;;;;;10486703;28;20028;-61
2023/06/13 17:52:25;;;;;;;2.90;2.60;;;;;;;;;;10483545;28;20431;-66
2023/06/13 17:57:26;;;;;;;5.30;2.75;;;;;;;;;;10482751;28;20075;-65
2023/06/13 18:02:27;;;;;;;3.70;2.72;;;;;;;;;;10485614;28;20027;-66
2023/06/13 18:07:27;;;;;;;3.65;2.75;;;;;;;;;;10492649;28;20028;-65
2023/06/13 18:12:28;;;;;;;3.33;2.78;;;;;;;;;;10490862;28;20476;-66
2023/06/13 18:17:28;;;;;;;4.00;2.80;;;;;;;;;;10482216;28;20032;-66
2023/06/13 18:22:30;;;;;;;5.45;2.75;;;;;;;;;;10492527;28;20475;-66
2023/06/13 18:27:31;;;;;;;3.38;2.70;;;;;;;;;;10479398;28;20387;-65
2023/06/13 18:32:31;;;;;;;2.95;2.53;;;;;;;;;;10496449;28;20040;-66
2023/06/13 18:37:32;;;;;;;6.68;2.72;;;;;;;;;;10493035;28;20074;-62
2023/06/13 18:42:32;;;;;;;3.08;2.50;;;;;;;;;;10491838;28;20165;-66
2023/06/13 18:47:33;;;;;;;4.60;2.80;;;;;;;;;;10491100;28;20029;-66
2023/06/13 18:52:36;;;;;;;4.93;2.97;;;;;;;;;;10491347;28;20032;-65
2023/06/13 18:57:37;;;;;;;3.70;2.88;;;;;;;;;;10491374;28;20032;-65
2023/06/13 19:02:37;;;;;;;4.47;2.90;;;;;;;;;;10488827;28;20112;-66
2023/06/13 19:07:38;;;;;;;3.42;2.65;;;;;;;;;;10480003;28;20032;-66
2023/06/13 19:12:42;;;;;;;4.32;2.70;;;;;;;;;;10488462;28;20028;-65
2023/06/13 19:17:42;;;;;;;4.43;2.78;;;;;;;;;;10490554;28;20024;-66
2023/06/13 19:22:43;;;;;;;4.35;2.45;;;;;;;;;;10489514;28;20044;-63
2023/06/13 19:27:44;;;;;;;3.38;2.40;;;;;;;;;;10489568;28;20082;-66
2023/06/13 19:32:44;;;;;;;3.10;2.80;;;;;;;;;;10493966;28;20052;-62
2023/06/13 19:37:45;;;;;;;5.40;2.88;;;;;;;;;;10486686;28;20399;-65
2023/06/13 19:42:49;;;;;;;26.08;3.50;;;;;;;;;;10488408;28;20021;-64
2023/06/13 19:47:51;;;;;;;6.95;2.83;;;;;;;;;;10483578;28;20472;-65
2023/06/13 19:52:52;;;;;;;9.77;2.78;;;;;;;;;;10486197;28;20035;-65
2023/06/13 19:57:53;;;;;;;3.25;2.75;;;;;;;;;;10488698;28;20066;-64
2023/06/13 20:02:56;;;;;;;2.90;2.55;;;;;;;;;;10488434;28;20028;-60
2023/06/13 20:07:56;;;;;;;4.60;2.83;;;;;;;;;;10470631;28;20047;-65
2023/06/13 20:12:58;;;;;;;5.63;2.97;;;;;;;;;;10457113;28;20540;-66
2023/06/13 20:18:00;;;;;;;3.80;2.78;;;;;;;;;;10470161;28;20024;-65
2023/06/13 20:23:01;;;;;;;3.30;2.50;;;;;;;;;;10488153;28;20032;-66
2023/06/13 20:28:01;;;;;;;5.13;3.20;;;;;;;;;;10491165;28;20027;-65
2023/06/13 20:33:02;;;;;;;8.02;3.42;;;;;;;;;;10493231;28;20053;-65
2023/06/13 20:38:03;;;;;;;5.53;4.10;;;;;;;;;;10493669;28;20117;-65
2023/06/13 20:43:04;;;;;;;6.22;3.80;;;;;;;;;;10491749;28;20036;-65
2023/06/13 20:48:06;;;;;;;7.38;3.30;;;;;;;;;;10495174;28;20424;-65
2023/06/13 20:53:07;;;;;;;4.88;3.85;;;;;;;;;;10495443;28;20568;-66
2023/06/13 20:58:08;;;;;;;4.75;3.60;;;;;;;;;;10489231;28;20033;-66
2023/06/13 21:03:09;;;;;;;6.03;3.72;;;;;;;;;;10486457;28;20024;-64
2023/06/13 21:08:10;;;;;;;6.05;3.30;;;;;;;;;;10494772;28;20024;-66
2023/06/13 21:13:11;;;;;;;5.57;4.30;;;;;;;;;;10492872;28;20047;-61
2023/06/13 21:18:12;;;;;;;5.93;3.97;;;;;;;;;;10494594;28;20428;-62
2023/06/13 21:23:12;;;;;;;4.10;3.70;;;;;;;;;;10493780;28;20430;-64
2023/06/13 21:28:13;;;;;;;17.52;4.10;;;;;;;;;;10494498;28;20085;-64
2023/06/13 21:33:17;;;;;;;4.25;3.83;;;;;;;;;;10498945;28;20048;-63
2023/06/13 21:38:20;;;;;;;4.53;3.70;;;;;;;;;;10494006;28;20111;-62
2023/06/13 21:43:22;;;;;;;4.68;3.90;;;;;;;;;;10482068;28;20547;-64
2023/06/13 21:48:23;;;;;;;4.35;3.95;;;;;;;;;;10494828;28;20031;-65
2023/06/13 21:53:24;;;;;;;5.55;3.67;;;;;;;;;;10482250;28;20048;-59
2023/06/13 21:58:24;;;;;;;5.22;3.55;;;;;;;;;;10467672;28;20035;-66
2023/06/13 22:03:26;;;;;;;4.35;3.72;;;;;;;;;;10488315;28;20032;-65
2023/06/13 22:08:27;;;;;;;5.60;3.90;;;;;;;;;;10482219;28;20051;-66
2023/06/13 22:13:28;;;;;;;7.35;3.85;;;;;;;;;;10486498;28;20021;-64
2023/06/13 22:18:29;;;;;;;5.45;3.80;;;;;;;;;;10487473;28;20025;-64
2023/06/13 22:23:29;;;;;;;8.52;3.97;;;;;;;;;;10488505;28;20036;-62
2023/06/13 22:28:31;;;;;;;16.63;4.95;;;;;;;;;;10466726;28;20024;-62
2023/06/13 22:33:31;;;;;;;10.13;4.47;;;;;;;;;;10462036;28;20068;-66
2023/06/13 22:38:32;;;;;;;11.52;4.53;;;;;;;;;;10469087;28;20036;-65
2023/06/13 22:43:35;;;;;;;16.98;4.53;;;;;;;;;;10476921;28;20122;-63
2023/06/13 22:48:36;;;;;;;9.27;4.40;;;;;;;;;;10489209;28;20028;-66
2023/06/13 22:53:36;;;;;;;9.88;4.20;;;;;;;;;;10488445;28;20048;-65
2023/06/13 22:58:37;;;;;;;9.00;4.28;;;;;;;;;;10489554;28;20032;-66
2023/06/13 23:03:38;;;;;;;7.00;3.80;;;;;;;;;;10489042;28;20032;-64
2023/06/13 23:08:38;;;;;;;9.80;3.95;;;;;;;;;;10488848;28;20020;-64
2023/06/13 23:13:39;;;;;;;4.25;3.70;;;;;;;;;;10488693;28;20033;-64
2023/06/13 23:18:39;;;;;;;10.23;3.55;;;;;;;;;;10488657;28;20024;-65
2023/06/13 23:23:40;;;;;;;6.22;3.70;;;;;;;;;;10489629;28;20550;-64
2023/06/13 23:28:41;;;;;;;10.07;3.70;;;;;;;;;;10489956;28;20573;-65
2023/06/13 23:33:41;;;;;;;7.10;3.58;;;;;;;;;;10489400;28;20407;-65
2023/06/13 23:38:42;;;;;;;11.35;3.92;;;;;;;;;;10490863;28;20028;-65
2023/06/13 23:43:43;;;;;;;8.85;3.67;;;;;;;;;;10491182;28;20032;-64
2023/06/13 23:48:43;;;;;;;5.85;4.10;;;;;;;;;;10484646;28;20017;-65
2023/06/13 23:53:44;;;;;;;7.57;3.65;;;;;;;;;;10478988;28;20036;-62
2023/06/13 23:58:45;;;;;;;5.93;3.58;;;;;;;;;;10475898;28;20029;-62
